Location San Luis Obispo, CA, US

ob kcasanlu1 190951Z AUTO 28000KT CLR 06/04 A3011 RMK SLPNO 

2017.11.19 0951 UTC
Wind from the W (281 degrees) at Calm MPH ( KT) gusting to 0.0 MPH (0 KT)
Visibility    Mile(s)
Sky Conditions  clear
Temperature 42.90 F (6 C)
Dew Point 39.60 F (4 C)
Relative Humidity 88%
Pressure   30.11 in. Hg (1020 hPa)
Rain  0.00 in.
Daily Rain  in.

Station Name  www.sloweather.com
Longitude, Latitude  -120.71, 35.26
Elevation 310
Station URL www.sloweather.com
Software Type VWS V14.00